sensor_id;sensor_type;location;lat;lon;timestamp;pressure;altitude;pressure_sealevel;temperature;humidity
74343;BME280;62767;50.300;8.070;2022-09-09T00:04:59;99415.09;;;17.74;72.37
74343;BME280;62767;50.300;8.070;2022-09-09T00:07:49;99423.56;;;17.64;73.05
74343;BME280;62767;50.300;8.070;2022-09-09T00:10:30;99416.97;;;17.82;72.20
74343;BME280;62767;50.300;8.070;2022-09-09T00:15:57;99405.53;;;17.70;72.13
74343;BME280;62767;50.300;8.070;2022-09-09T00:21:17;99411.31;;;17.52;73.28
74343;BME280;62767;50.300;8.070;2022-09-09T00:23:55;99414.78;;;16.98;75.21
74343;BME280;62767;50.300;8.070;2022-09-09T00:31:37;99416.66;;;17.06;75.02
74343;BME280;62767;50.300;8.070;2022-09-09T00:34:13;99419.72;;;17.11;74.92
74343;BME280;62767;50.300;8.070;2022-09-09T00:36:40;99419.25;;;17.39;73.78
74343;BME280;62767;50.300;8.070;2022-09-09T00:39:13;99418.34;;;17.47;73.63
74343;BME280;62767;50.300;8.070;2022-09-09T00:42:12;99419.19;;;17.47;73.15
74343;BME280;62767;50.300;8.070;2022-09-09T00:55:41;99409.69;;;16.71;76.00
74343;BME280;62767;50.300;8.070;2022-09-09T00:58:10;99408.00;;;16.78;75.29
74343;BME280;62767;50.300;8.070;2022-09-09T01:00:43;99406.13;;;16.70;75.81
74343;BME280;62767;50.300;8.070;2022-09-09T01:05:46;99404.59;;;16.84;75.40
74343;BME280;62767;50.300;8.070;2022-09-09T01:10:54;99400.56;;;17.03;74.30
74343;BME280;62767;50.300;8.070;2022-09-09T01:13:30;99409.50;;;16.89;74.59
74343;BME280;62767;50.300;8.070;2022-09-09T01:16:01;99417.59;;;16.82;74.91
74343;BME280;62767;50.300;8.070;2022-09-09T01:18:35;99419.13;;;16.77;75.16
74343;BME280;62767;50.300;8.070;2022-09-09T01:26:48;99409.91;;;16.61;75.59
74343;BME280;62767;50.300;8.070;2022-09-09T01:29:23;99417.22;;;16.93;74.75
74343;BME280;62767;50.300;8.070;2022-09-09T01:32:01;99416.03;;;16.80;74.57
74343;BME280;62767;50.300;8.070;2022-09-09T01:34:32;99425.28;;;16.54;75.27
74343;BME280;62767;50.300;8.070;2022-09-09T01:37:04;99424.28;;;16.14;76.98
74343;BME280;62767;50.300;8.070;2022-09-09T01:39:33;99431.47;;;16.15;76.73
74343;BME280;62767;50.300;8.070;2022-09-09T01:42:05;99429.41;;;16.01;77.95
74343;BME280;62767;50.300;8.070;2022-09-09T01:44:32;99422.22;;;15.92;77.54
74343;BME280;62767;50.300;8.070;2022-09-09T01:46:59;99425.44;;;15.79;77.94
74343;BME280;62767;50.300;8.070;2022-09-09T01:49:25;99422.06;;;16.10;77.37
74343;BME280;62767;50.300;8.070;2022-09-09T01:51:53;99420.00;;;15.87;77.87
74343;BME280;62767;50.300;8.070;2022-09-09T01:54:26;99430.94;;;15.87;77.82
74343;BME280;62767;50.300;8.070;2022-09-09T01:57:15;99426.31;;;15.71;78.72
74343;BME280;62767;50.300;8.070;2022-09-09T02:02:27;99424.78;;;16.01;77.51
74343;BME280;62767;50.300;8.070;2022-09-09T02:05:30;99419.16;;;16.36;76.65
74343;BME280;62767;50.300;8.070;2022-09-09T02:08:17;99429.75;;;16.39;76.26
74343;BME280;62767;50.300;8.070;2022-09-09T02:10:58;99422.88;;;16.67;75.34
74343;BME280;62767;50.300;8.070;2022-09-09T02:13:37;99430.56;;;16.64;75.53
74343;BME280;62767;50.300;8.070;2022-09-09T02:16:21;99430.22;;;16.75;74.77
74343;BME280;62767;50.300;8.070;2022-09-09T02:21:19;99430.06;;;16.52;75.19
74343;BME280;62767;50.300;8.070;2022-09-09T02:23:47;99427.34;;;16.77;74.30
74343;BME280;62767;50.300;8.070;2022-09-09T02:26:16;99422.53;;;16.62;75.18
74343;BME280;62767;50.300;8.070;2022-09-09T02:28:51;99431.66;;;16.38;75.62
74343;BME280;62767;50.300;8.070;2022-09-09T02:31:21;99436.59;;;16.43;75.52
74343;BME280;62767;50.300;8.070;2022-09-09T02:33:56;99432.50;;;16.39;76.07
74343;BME280;62767;50.300;8.070;2022-09-09T02:36:27;99424.44;;;16.37;76.07
74343;BME280;62767;50.300;8.070;2022-09-09T02:38:56;99419.66;;;16.31;76.64
74343;BME280;62767;50.300;8.070;2022-09-09T02:41:37;99428.38;;;16.35;76.02
74343;BME280;62767;50.300;8.070;2022-09-09T02:44:15;99416.91;;;15.90;77.66
74343;BME280;62767;50.300;8.070;2022-09-09T02:50:15;99408.06;;;16.13;76.98
74343;BME280;62767;50.300;8.070;2022-09-09T02:55:41;99396.94;;;16.22;76.31
74343;BME280;62767;50.300;8.070;2022-09-09T02:58:13;99400.34;;;16.16;76.90
74343;BME280;62767;50.300;8.070;2022-09-09T03:00:45;99399.00;;;16.20;77.21
74343;BME280;62767;50.300;8.070;2022-09-09T03:03:12;99409.06;;;16.44;75.62
74343;BME280;62767;50.300;8.070;2022-09-09T03:05:38;99404.47;;;16.20;76.94
74343;BME280;62767;50.300;8.070;2022-09-09T03:08:05;99406.69;;;16.25;76.19
74343;BME280;62767;50.300;8.070;2022-09-09T03:10:32;99415.72;;;16.42;75.87
74343;BME280;62767;50.300;8.070;2022-09-09T03:12:58;99405.16;;;16.06;77.74
74343;BME280;62767;50.300;8.070;2022-09-09T03:15:27;99418.09;;;15.79;79.30
74343;BME280;62767;50.300;8.070;2022-09-09T03:17:55;99416.06;;;15.90;78.73
74343;BME280;62767;50.300;8.070;2022-09-09T03:20:24;99413.19;;;15.91;79.03
74343;BME280;62767;50.300;8.070;2022-09-09T03:22:52;99418.13;;;16.04;78.56
74343;BME280;62767;50.300;8.070;2022-09-09T03:25:18;99421.19;;;16.17;77.64
74343;BME280;62767;50.300;8.070;2022-09-09T03:27:43;99420.69;;;15.89;78.38
74343;BME280;62767;50.300;8.070;2022-09-09T03:30:11;99418.31;;;15.94;78.43
74343;BME280;62767;50.300;8.070;2022-09-09T03:32:37;99421.50;;;15.73;79.56
74343;BME280;62767;50.300;8.070;2022-09-09T03:35:03;99436.31;;;15.62;80.07
74343;BME280;62767;50.300;8.070;2022-09-09T03:37:29;99429.94;;;15.46;80.49
74343;BME280;62767;50.300;8.070;2022-09-09T03:39:57;99422.03;;;15.77;79.27
74343;BME280;62767;50.300;8.070;2022-09-09T03:42:23;99435.81;;;15.67;79.79
74343;BME280;62767;50.300;8.070;2022-09-09T03:44:51;99444.66;;;15.53;80.54
74343;BME280;62767;50.300;8.070;2022-09-09T03:47:20;99450.19;;;15.69;80.43
74343;BME280;62767;50.300;8.070;2022-09-09T03:49:49;99442.38;;;15.99;78.73
74343;BME280;62767;50.300;8.070;2022-09-09T03:52:15;99439.31;;;16.02;79.08
74343;BME280;62767;50.300;8.070;2022-09-09T03:54:42;99435.91;;;15.92;79.63
74343;BME280;62767;50.300;8.070;2022-09-09T03:57:09;99435.00;;;15.75;79.78
74343;BME280;62767;50.300;8.070;2022-09-09T03:59:36;99426.50;;;15.86;79.44
74343;BME280;62767;50.300;8.070;2022-09-09T04:02:03;99431.09;;;15.77;80.02
74343;BME280;62767;50.300;8.070;2022-09-09T04:04:29;99431.44;;;15.74;80.04
74343;BME280;62767;50.300;8.070;2022-09-09T04:06:55;99427.72;;;16.00;79.42
74343;BME280;62767;50.300;8.070;2022-09-09T04:09:23;99419.16;;;15.95;79.37
74343;BME280;62767;50.300;8.070;2022-09-09T04:11:51;99418.28;;;15.86;79.07
74343;BME280;62767;50.300;8.070;2022-09-09T04:14:19;99417.56;;;15.76;79.96
74343;BME280;62767;50.300;8.070;2022-09-09T04:16:44;99413.50;;;15.72;79.99
74343;BME280;62767;50.300;8.070;2022-09-09T04:19:12;99419.41;;;15.67;80.00
74343;BME280;62767;50.300;8.070;2022-09-09T04:21:41;99417.44;;;15.77;79.81
74343;BME280;62767;50.300;8.070;2022-09-09T04:24:07;99419.81;;;15.72;80.43
74343;BME280;62767;50.300;8.070;2022-09-09T04:26:35;99428.84;;;15.73;79.85
74343;BME280;62767;50.300;8.070;2022-09-09T04:29:05;99433.81;;;15.69;80.30
74343;BME280;62767;50.300;8.070;2022-09-09T04:31:32;99444.00;;;15.67;80.06
74343;BME280;62767;50.300;8.070;2022-09-09T04:33:58;99440.63;;;15.73;79.63
74343;BME280;62767;50.300;8.070;2022-09-09T04:36:27;99446.09;;;15.73;79.95
74343;BME280;62767;50.300;8.070;2022-09-09T04:38:57;99437.22;;;15.79;79.61
74343;BME280;62767;50.300;8.070;2022-09-09T04:41:23;99442.69;;;15.71;79.28
74343;BME280;62767;50.300;8.070;2022-09-09T04:43:51;99437.16;;;15.55;80.30
74343;BME280;62767;50.300;8.070;2022-09-09T04:46:23;99442.63;;;15.55;80.59
74343;BME280;62767;50.300;8.070;2022-09-09T04:48:50;99437.97;;;15.47;80.78
74343;BME280;62767;50.300;8.070;2022-09-09T04:51:16;99429.66;;;15.57;80.19
74343;BME280;62767;50.300;8.070;2022-09-09T04:53:44;99417.53;;;15.59;79.70
74343;BME280;62767;50.300;8.070;2022-09-09T04:56:14;99430.13;;;15.52;80.37
74343;BME280;62767;50.300;8.070;2022-09-09T04:58:44;99433.94;;;15.59;79.92
74343;BME280;62767;50.300;8.070;2022-09-09T05:01:14;99440.31;;;15.84;79.03
74343;BME280;62767;50.300;8.070;2022-09-09T05:03:42;99447.69;;;16.00;78.57
74343;BME280;62767;50.300;8.070;2022-09-09T05:06:17;99451.13;;;16.19;77.70
74343;BME280;62767;50.300;8.070;2022-09-09T05:08:45;99455.94;;;16.09;77.65
74343;BME280;62767;50.300;8.070;2022-09-09T05:11:21;99453.00;;;16.10;77.99
74343;BME280;62767;50.300;8.070;2022-09-09T05:13:50;99449.91;;;15.89;78.78
74343;BME280;62767;50.300;8.070;2022-09-09T05:16:17;99452.97;;;15.86;78.77
74343;BME280;62767;50.300;8.070;2022-09-09T05:18:44;99454.63;;;15.70;79.34
74343;BME280;62767;50.300;8.070;2022-09-09T05:21:13;99453.31;;;15.91;78.74
74343;BME280;62767;50.300;8.070;2022-09-09T05:23:40;99452.66;;;16.05;78.51
74343;BME280;62767;50.300;8.070;2022-09-09T05:26:07;99465.00;;;15.67;79.91
74343;BME280;62767;50.300;8.070;2022-09-09T05:28:35;99446.97;;;15.82;79.53
74343;BME280;62767;50.300;8.070;2022-09-09T05:31:03;99458.81;;;15.48;80.98
74343;BME280;62767;50.300;8.070;2022-09-09T05:33:32;99457.50;;;15.60;79.94
74343;BME280;62767;50.300;8.070;2022-09-09T05:36:04;99464.31;;;15.56;80.27
74343;BME280;62767;50.300;8.070;2022-09-09T05:38:31;99466.16;;;15.56;80.63
74343;BME280;62767;50.300;8.070;2022-09-09T05:40:59;99469.09;;;15.54;80.66
74343;BME280;62767;50.300;8.070;2022-09-09T05:43:26;99475.50;;;15.79;79.34
74343;BME280;62767;50.300;8.070;2022-09-09T05:46:08;99474.53;;;16.05;78.66
74343;BME280;62767;50.300;8.070;2022-09-09T05:48:36;99469.06;;;16.05;78.26
74343;BME280;62767;50.300;8.070;2022-09-09T05:51:03;99479.47;;;15.93;79.18
74343;BME280;62767;50.300;8.070;2022-09-09T05:53:30;99475.03;;;16.00;78.98
74343;BME280;62767;50.300;8.070;2022-09-09T05:56:05;99478.47;;;15.52;nan
74343;BME280;62767;50.300;8.070;2022-09-09T05:58:34;99477.28;;;16.13;78.65
74343;BME280;62767;50.300;8.070;2022-09-09T06:01:04;99477.09;;;16.23;78.33
74343;BME280;62767;50.300;8.070;2022-09-09T06:03:31;99477.25;;;16.05;78.81
74343;BME280;62767;50.300;8.070;2022-09-09T06:06:01;99476.59;;;16.19;78.42
74343;BME280;62767;50.300;8.070;2022-09-09T06:08:30;99477.28;;;16.62;76.97
74343;BME280;62767;50.300;8.070;2022-09-09T06:11:01;99478.66;;;16.58;77.50
74343;BME280;62767;50.300;8.070;2022-09-09T06:13:29;99480.91;;;16.79;76.43
74343;BME280;62767;50.300;8.070;2022-09-09T06:15:55;99478.31;;;16.86;75.33
74343;BME280;62767;50.300;8.070;2022-09-09T06:18:21;99479.19;;;16.62;76.17
74343;BME280;62767;50.300;8.070;2022-09-09T06:20:57;99470.06;;;16.69;76.43
74343;BME280;62767;50.300;8.070;2022-09-09T06:23:25;99471.31;;;16.50;77.10
74343;BME280;62767;50.300;8.070;2022-09-09T06:25:51;99470.81;;;16.55;77.25
74343;BME280;62767;50.300;8.070;2022-09-09T06:28:18;99468.06;;;16.47;77.68
74343;BME280;62767;50.300;8.070;2022-09-09T06:30:44;99466.19;;;16.39;78.04
74343;BME280;62767;50.300;8.070;2022-09-09T06:33:10;99462.22;;;16.91;76.33
74343;BME280;62767;50.300;8.070;2022-09-09T06:35:36;99471.13;;;16.85;76.80
74343;BME280;62767;50.300;8.070;2022-09-09T06:38:02;99461.38;;;16.90;77.05
74343;BME280;62767;50.300;8.070;2022-09-09T06:40:29;99458.06;;;17.03;76.72
74343;BME280;62767;50.300;8.070;2022-09-09T06:42:59;99458.91;;;17.12;76.14
74343;BME280;62767;50.300;8.070;2022-09-09T06:45:35;99462.56;;;17.43;75.27
74343;BME280;62767;50.300;8.070;2022-09-09T06:48:02;99460.19;;;17.40;75.70
74343;BME280;62767;50.300;8.070;2022-09-09T06:50:28;99464.69;;;17.64;75.15
74343;BME280;62767;50.300;8.070;2022-09-09T06:52:54;99451.94;;;17.80;73.64
74343;BME280;62767;50.300;8.070;2022-09-09T06:55:20;99452.75;;;17.88;73.88
74343;BME280;62767;50.300;8.070;2022-09-09T06:57:46;99452.63;;;17.74;74.86
74343;BME280;62767;50.300;8.070;2022-09-09T07:00:16;99456.59;;;17.71;75.59
74343;BME280;62767;50.300;8.070;2022-09-09T07:02:42;99460.50;;;17.77;74.88
74343;BME280;62767;50.300;8.070;2022-09-09T07:05:09;99450.56;;;17.76;74.79
74343;BME280;62767;50.300;8.070;2022-09-09T07:07:35;99450.53;;;17.92;74.57
74343;BME280;62767;50.300;8.070;2022-09-09T07:10:03;99457.44;;;18.03;74.24
74343;BME280;62767;50.300;8.070;2022-09-09T07:12:30;99455.31;;;17.90;74.96
74343;BME280;62767;50.300;8.070;2022-09-09T07:14:58;99458.19;;;18.43;71.56
74343;BME280;62767;50.300;8.070;2022-09-09T07:17:24;99465.78;;;18.78;69.08
74343;BME280;62767;50.300;8.070;2022-09-09T07:19:49;99454.34;;;18.90;68.58
74343;BME280;62767;50.300;8.070;2022-09-09T07:22:16;99453.09;;;18.92;69.27
74343;BME280;62767;50.300;8.070;2022-09-09T07:24:42;99459.56;;;18.99;69.24
74343;BME280;62767;50.300;8.070;2022-09-09T07:27:11;99460.34;;;18.70;70.59
74343;BME280;62767;50.300;8.070;2022-09-09T07:29:37;99458.06;;;19.27;68.92
74343;BME280;62767;50.300;8.070;2022-09-09T07:32:03;99458.03;;;19.71;66.21
74343;BME280;62767;50.300;8.070;2022-09-09T07:34:33;99461.28;;;19.96;64.77
74343;BME280;62767;50.300;8.070;2022-09-09T07:36:59;99461.19;;;20.26;63.79
74343;BME280;62767;50.300;8.070;2022-09-09T07:39:25;99462.16;;;20.40;61.91
74343;BME280;62767;50.300;8.070;2022-09-09T07:41:52;99462.78;;;20.42;62.39
74343;BME280;62767;50.300;8.070;2022-09-09T07:44:23;99471.28;;;20.62;61.13
74343;BME280;62767;50.300;8.070;2022-09-09T07:46:59;99470.16;;;20.77;60.33
74343;BME280;62767;50.300;8.070;2022-09-09T07:49:30;99477.41;;;20.85;60.53
74343;BME280;62767;50.300;8.070;2022-09-09T07:51:57;99478.88;;;20.81;60.61
74343;BME280;62767;50.300;8.070;2022-09-09T07:54:23;99480.56;;;20.82;60.69
74343;BME280;62767;50.300;8.070;2022-09-09T07:56:51;99483.72;;;21.07;59.23
74343;BME280;62767;50.300;8.070;2022-09-09T07:59:17;99479.13;;;20.86;59.83
74343;BME280;62767;50.300;8.070;2022-09-09T08:01:50;99485.88;;;20.84;60.18
74343;BME280;62767;50.300;8.070;2022-09-09T08:04:22;99482.03;;;21.06;59.79
74343;BME280;62767;50.300;8.070;2022-09-09T08:06:53;99485.50;;;21.15;58.72
74343;BME280;62767;50.300;8.070;2022-09-09T08:09:21;99486.66;;;21.68;57.77
74343;BME280;62767;50.300;8.070;2022-09-09T08:11:48;99481.47;;;21.93;56.11
74343;BME280;62767;50.300;8.070;2022-09-09T08:14:14;99486.06;;;22.34;54.73
74343;BME280;62767;50.300;8.070;2022-09-09T08:16:44;99475.78;;;22.15;53.46
74343;BME280;62767;50.300;8.070;2022-09-09T08:19:13;99475.28;;;21.91;52.67
74343;BME280;62767;50.300;8.070;2022-09-09T08:21:41;99473.22;;;22.13;52.53
74343;BME280;62767;50.300;8.070;2022-09-09T08:24:07;99475.72;;;22.02;53.78
74343;BME280;62767;50.300;8.070;2022-09-09T08:26:36;99487.09;;;22.20;53.07
74343;BME280;62767;50.300;8.070;2022-09-09T08:29:05;99479.44;;;22.22;52.92
74343;BME280;62767;50.300;8.070;2022-09-09T08:31:34;99482.88;;;22.37;51.24
74343;BME280;62767;50.300;8.070;2022-09-09T08:34:01;99489.03;;;22.40;51.46
74343;BME280;62767;50.300;8.070;2022-09-09T08:36:33;99497.56;;;22.65;51.19
74343;BME280;62767;50.300;8.070;2022-09-09T08:39:00;99490.56;;;22.89;50.54
74343;BME280;62767;50.300;8.070;2022-09-09T08:52:43;99476.25;;;23.38;49.40
74343;BME280;62767;50.300;8.070;2022-09-09T09:04:11;99467.56;;;24.38;46.46
74343;BME280;62767;50.300;8.070;2022-09-09T09:12:27;99477.22;;;24.22;46.39
74343;BME280;62767;50.300;8.070;2022-09-09T09:14:55;99472.97;;;24.58;45.77
74343;BME280;62767;50.300;8.070;2022-09-09T09:17:27;99472.19;;;25.01;43.86
74343;BME280;62767;50.300;8.070;2022-09-09T09:19:53;99462.44;;;24.92;44.51
74343;BME280;62767;50.300;8.070;2022-09-09T09:22:23;99455.16;;;24.97;42.03
74343;BME280;62767;50.300;8.070;2022-09-09T09:27:33;99464.31;;;24.41;43.75
74343;BME280;62767;50.300;8.070;2022-09-09T09:30:22;99482.47;;;23.99;44.87
74343;BME280;62767;50.300;8.070;2022-09-09T09:35:20;99495.34;;;23.66;47.57
74343;BME280;62767;50.300;8.070;2022-09-09T09:37:46;99487.50;;;23.57;48.95
74343;BME280;62767;50.300;8.070;2022-09-09T09:40:15;99491.22;;;22.97;50.16
74343;BME280;62767;50.300;8.070;2022-09-09T09:42:59;99479.31;;;23.17;51.40
74343;BME280;62767;50.300;8.070;2022-09-09T09:45:42;99483.56;;;22.99;52.20
74343;BME280;62767;50.300;8.070;2022-09-09T09:48:12;99489.50;;;22.83;52.69
74343;BME280;62767;50.300;8.070;2022-09-09T09:53:24;99494.97;;;22.36;55.22
74343;BME280;62767;50.300;8.070;2022-09-09T09:56:04;99513.44;;;22.23;54.91
74343;BME280;62767;50.300;8.070;2022-09-09T09:58:33;99494.31;;;22.21;53.88
74343;BME280;62767;50.300;8.070;2022-09-09T10:01:03;99495.81;;;22.24;55.30
74343;BME280;62767;50.300;8.070;2022-09-09T10:03:35;99493.72;;;22.39;56.04
74343;BME280;62767;50.300;8.070;2022-09-09T10:06:06;99493.75;;;22.52;54.04
74343;BME280;62767;50.300;8.070;2022-09-09T10:08:34;99492.44;;;22.42;55.30
74343;BME280;62767;50.300;8.070;2022-09-09T10:14:19;99495.88;;;22.64;54.02
74343;BME280;62767;50.300;8.070;2022-09-09T10:19:37;99483.34;;;22.61;54.62
74343;BME280;62767;50.300;8.070;2022-09-09T10:22:26;99479.09;;;22.85;54.28
74343;BME280;62767;50.300;8.070;2022-09-09T10:28:18;99459.25;;;23.35;52.73
74343;BME280;62767;50.300;8.070;2022-09-09T10:31:03;99453.09;;;23.39;50.20
74343;BME280;62767;50.300;8.070;2022-09-09T10:33:50;99445.75;;;23.71;49.81
74343;BME280;62767;50.300;8.070;2022-09-09T10:36:22;99446.28;;;23.93;48.20
74343;BME280;62767;50.300;8.070;2022-09-09T10:39:00;99438.25;;;23.85;47.63
74343;BME280;62767;50.300;8.070;2022-09-09T10:55:45;99451.53;;;23.50;45.64
74343;BME280;62767;50.300;8.070;2022-09-09T10:58:30;99453.78;;;23.86;44.21
74343;BME280;62767;50.300;8.070;2022-09-09T11:01:09;99455.63;;;23.47;43.92
74343;BME280;62767;50.300;8.070;2022-09-09T11:03:37;99462.13;;;23.80;43.12
74343;BME280;62767;50.300;8.070;2022-09-09T11:06:30;99468.41;;;23.42;44.31
74343;BME280;62767;50.300;8.070;2022-09-09T11:08:53;99453.00;;;23.66;42.59
74343;BME280;62767;50.300;8.070;2022-09-09T11:11:37;99449.94;;;23.87;41.92
74343;BME280;62767;50.300;8.070;2022-09-09T11:16:46;99446.88;;;24.02;41.88
74343;BME280;62767;50.300;8.070;2022-09-09T11:22:29;99450.81;;;23.81;41.74
74343;BME280;62767;50.300;8.070;2022-09-09T11:25:00;99449.97;;;24.19;41.76
74343;BME280;62767;50.300;8.070;2022-09-09T11:33:25;99426.78;;;25.20;40.68
74343;BME280;62767;50.300;8.070;2022-09-09T11:36:06;99426.31;;;25.42;40.15
74343;BME280;62767;50.300;8.070;2022-09-09T11:39:44;99422.53;;;25.18;39.97
74343;BME280;62767;50.300;8.070;2022-09-09T11:41:41;99426.69;;;25.27;39.27
74343;BME280;62767;50.300;8.070;2022-09-09T11:44:17;99425.03;;;25.26;39.75
74343;BME280;62767;50.300;8.070;2022-09-09T11:46:49;99414.03;;;25.68;39.35
74343;BME280;62767;50.300;8.070;2022-09-09T11:49:50;99432.81;;;25.54;38.23
74343;BME280;62767;50.300;8.070;2022-09-09T11:52:22;99453.31;;;25.35;37.77
74343;BME280;62767;50.300;8.070;2022-09-09T11:54:51;99438.03;;;25.44;37.11
74343;BME280;62767;50.300;8.070;2022-09-09T11:57:34;99438.97;;;25.56;37.07
74343;BME280;62767;50.300;8.070;2022-09-09T12:00:01;99432.47;;;25.62;37.87
74343;BME280;62767;50.300;8.070;2022-09-09T12:02:48;99412.81;;;25.64;37.44
74343;BME280;62767;50.300;8.070;2022-09-09T12:05:15;99428.09;;;25.36;37.40
74343;BME280;62767;50.300;8.070;2022-09-09T12:07:54;99422.25;;;25.63;37.07
74343;BME280;62767;50.300;8.070;2022-09-09T12:10:33;99416.22;;;25.66;37.03
74343;BME280;62767;50.300;8.070;2022-09-09T12:13:23;99414.84;;;26.05;36.64
74343;BME280;62767;50.300;8.070;2022-09-09T12:15:51;99408.41;;;25.93;36.23
74343;BME280;62767;50.300;8.070;2022-09-09T12:18:33;99422.41;;;25.49;36.86
74343;BME280;62767;50.300;8.070;2022-09-09T12:23:32;99414.81;;;25.57;37.58
74343;BME280;62767;50.300;8.070;2022-09-09T12:33:44;99446.97;;;24.59;39.11
74343;BME280;62767;50.300;8.070;2022-09-09T12:36:18;99483.59;;;24.29;41.73
74343;BME280;62767;50.300;8.070;2022-09-09T12:38:45;99490.78;;;23.14;50.01
74343;BME280;62767;50.300;8.070;2022-09-09T12:41:24;99495.25;;;22.75;51.11
74343;BME280;62767;50.300;8.070;2022-09-09T12:43:51;99488.00;;;22.74;52.60
74343;BME280;62767;50.300;8.070;2022-09-09T12:46:26;99469.28;;;22.56;55.32
74343;BME280;62767;50.300;8.070;2022-09-09T12:48:57;99461.63;;;22.45;55.76
74343;BME280;62767;50.300;8.070;2022-09-09T12:51:29;99459.94;;;22.70;56.31
74343;BME280;62767;50.300;8.070;2022-09-09T12:53:56;99461.03;;;22.96;55.47
74343;BME280;62767;50.300;8.070;2022-09-09T12:56:25;99452.53;;;23.04;54.06
74343;BME280;62767;50.300;8.070;2022-09-09T12:58:53;99440.91;;;23.47;54.73
74343;BME280;62767;50.300;8.070;2022-09-09T13:01:30;99430.84;;;23.66;53.47
74343;BME280;62767;50.300;8.070;2022-09-09T13:03:57;99416.38;;;23.64;56.60
74343;BME280;62767;50.300;8.070;2022-09-09T13:06:29;99412.41;;;23.98;53.66
74343;BME280;62767;50.300;8.070;2022-09-09T13:08:57;99405.31;;;24.02;52.98
74343;BME280;62767;50.300;8.070;2022-09-09T13:11:28;99403.78;;;24.13;54.25
74343;BME280;62767;50.300;8.070;2022-09-09T13:13:57;99396.50;;;24.18;54.06
74343;BME280;62767;50.300;8.070;2022-09-09T13:16:26;99397.81;;;24.41;53.06
74343;BME280;62767;50.300;8.070;2022-09-09T13:18:58;99396.72;;;24.49;55.18
74343;BME280;62767;50.300;8.070;2022-09-09T13:21:35;99387.22;;;24.63;52.38
74343;BME280;62767;50.300;8.070;2022-09-09T13:24:05;99388.94;;;24.64;51.21
74343;BME280;62767;50.300;8.070;2022-09-09T13:26:33;99385.59;;;24.99;49.54
74343;BME280;62767;50.300;8.070;2022-09-09T13:29:29;99379.34;;;25.03;49.46
74343;BME280;62767;50.300;8.070;2022-09-09T13:32:28;99372.63;;;24.93;49.26
74343;BME280;62767;50.300;8.070;2022-09-09T13:34:54;99368.53;;;25.20;49.25
74343;BME280;62767;50.300;8.070;2022-09-09T13:37:38;99368.28;;;25.22;46.83
74343;BME280;62767;50.300;8.070;2022-09-09T13:40:22;99372.31;;;25.26;47.17
74343;BME280;62767;50.300;8.070;2022-09-09T13:42:53;99376.19;;;25.00;47.04
74343;BME280;62767;50.300;8.070;2022-09-09T13:45:22;99383.88;;;24.79;48.06
74343;BME280;62767;50.300;8.070;2022-09-09T13:47:49;99383.41;;;24.82;47.40
74343;BME280;62767;50.300;8.070;2022-09-09T13:50:25;99392.25;;;24.16;47.30
74343;BME280;62767;50.300;8.070;2022-09-09T13:52:55;99388.56;;;23.90;46.38
74343;BME280;62767;50.300;8.070;2022-09-09T13:55:29;99398.53;;;23.53;46.86
74343;BME280;62767;50.300;8.070;2022-09-09T13:58:00;99405.53;;;23.56;47.86
74343;BME280;62767;50.300;8.070;2022-09-09T14:00:29;99413.69;;;23.44;48.29
74343;BME280;62767;50.300;8.070;2022-09-09T14:02:55;99427.84;;;23.02;49.89
74343;BME280;62767;50.300;8.070;2022-09-09T14:05:21;99426.78;;;22.90;51.54
74343;BME280;62767;50.300;8.070;2022-09-09T14:07:48;99441.88;;;22.74;50.39
74343;BME280;62767;50.300;8.070;2022-09-09T14:10:14;99440.41;;;22.78;53.83
74343;BME280;62767;50.300;8.070;2022-09-09T14:12:40;99439.56;;;22.58;56.08
74343;BME280;62767;50.300;8.070;2022-09-09T14:15:07;99449.72;;;22.24;56.83
74343;BME280;62767;50.300;8.070;2022-09-09T14:17:33;99448.59;;;22.05;57.20
74343;BME280;62767;50.300;8.070;2022-09-09T14:19:59;99445.53;;;21.80;58.15
74343;BME280;62767;50.300;8.070;2022-09-09T14:22:25;99428.13;;;21.73;58.93
74343;BME280;62767;50.300;8.070;2022-09-09T14:24:51;99425.69;;;22.18;57.97
74343;BME280;62767;50.300;8.070;2022-09-09T14:27:17;99402.47;;;21.92;59.84
74343;BME280;62767;50.300;8.070;2022-09-09T14:29:44;99409.38;;;22.63;59.35
74343;BME280;62767;50.300;8.070;2022-09-09T14:32:10;99401.13;;;23.41;57.08
74343;BME280;62767;50.300;8.070;2022-09-09T14:34:36;99399.50;;;23.85;57.46
74343;BME280;62767;50.300;8.070;2022-09-09T14:37:02;99402.66;;;23.82;54.68
74343;BME280;62767;50.300;8.070;2022-09-09T14:39:28;99401.41;;;24.16;55.51
74343;BME280;62767;50.300;8.070;2022-09-09T14:41:53;99404.31;;;24.28;55.04
74343;BME280;62767;50.300;8.070;2022-09-09T14:44:19;99400.50;;;24.23;53.52
74343;BME280;62767;50.300;8.070;2022-09-09T14:46:45;99401.66;;;24.08;54.26
74343;BME280;62767;50.300;8.070;2022-09-09T14:49:10;99399.72;;;24.15;52.47
74343;BME280;62767;50.300;8.070;2022-09-09T14:51:36;99391.88;;;24.44;52.11
74343;BME280;62767;50.300;8.070;2022-09-09T14:54:02;99394.13;;;24.54;52.19
74343;BME280;62767;50.300;8.070;2022-09-09T14:56:31;99396.25;;;24.52;52.28
74343;BME280;62767;50.300;8.070;2022-09-09T14:58:58;99401.44;;;24.67;51.91
74343;BME280;62767;50.300;8.070;2022-09-09T15:01:26;99407.63;;;24.12;53.19
74343;BME280;62767;50.300;8.070;2022-09-09T15:03:54;99414.00;;;24.12;53.78
74343;BME280;62767;50.300;8.070;2022-09-09T15:06:22;99415.66;;;23.88;54.39
74343;BME280;62767;50.300;8.070;2022-09-09T15:08:50;99424.06;;;24.07;51.25
74343;BME280;62767;50.300;8.070;2022-09-09T15:11:16;99432.97;;;23.64;53.97
74343;BME280;62767;50.300;8.070;2022-09-09T15:13:43;99439.44;;;23.44;55.23
74343;BME280;62767;50.300;8.070;2022-09-09T15:16:11;99442.72;;;23.21;55.99
74343;BME280;62767;50.300;8.070;2022-09-09T15:18:37;99445.50;;;22.95;57.44
74343;BME280;62767;50.300;8.070;2022-09-09T15:21:19;99449.75;;;22.57;58.88
74343;BME280;62767;50.300;8.070;2022-09-09T15:23:45;99459.28;;;22.28;59.97
74343;BME280;62767;50.300;8.070;2022-09-09T15:26:11;99467.16;;;22.31;59.48